createdAt,value
2022-11-12T00:01:47.102Z,22.73
2022-11-12T00:04:15.194Z,19.20
2022-11-12T00:06:44.932Z,21.20
2022-11-12T00:09:12.961Z,22.83
2022-11-12T00:11:49.322Z,25.55
2022-11-12T00:14:17.548Z,23.17
2022-11-12T00:16:47.361Z,18.27
2022-11-12T00:19:15.352Z,23.40
2022-11-12T00:21:43.594Z,23.27
2022-11-12T00:24:11.779Z,21.48
2022-11-12T00:26:42.818Z,18.50
2022-11-12T00:29:12.573Z,23.02
2022-11-12T00:31:41.638Z,24.77
2022-11-12T00:37:18.363Z,21.75
2022-11-12T00:39:57.913Z,27.13
2022-11-12T00:42:42.497Z,21.80
2022-11-12T00:45:32.407Z,26.42
2022-11-12T00:48:13.364Z,23.58
2022-11-12T00:50:45.671Z,22.65
2022-11-12T00:53:27.716Z,24.33
2022-11-12T00:56:35.659Z,26.63
2022-11-12T00:59:17.393Z,27.02
2022-11-12T01:02:02.423Z,30.48
2022-11-12T01:04:54.903Z,25.35
2022-11-12T01:07:32.331Z,24.45
2022-11-12T01:10:23.601Z,28.45
2022-11-12T01:12:58.386Z,30.33
2022-11-12T01:15:39.425Z,26.23
2022-11-12T01:18:26.693Z,31.48
2022-11-12T01:21:06.602Z,25.23
2022-11-12T01:23:41.990Z,33.53
2022-11-12T01:26:19.254Z,38.58
2022-11-12T01:28:56.737Z,36.13
2022-11-12T01:31:45.174Z,25.90
2022-11-12T01:34:20.881Z,28.80
2022-11-12T01:36:51.543Z,33.05
2022-11-12T01:39:29.581Z,30.83
2022-11-12T01:42:16.091Z,32.10
2022-11-12T01:44:51.393Z,35.08
2022-11-12T01:47:31.849Z,31.65
2022-11-12T01:50:18.878Z,41.03
2022-11-12T01:52:58.775Z,34.30
2022-11-12T01:55:43.233Z,50.20
2022-11-12T01:58:25.291Z,53.17
2022-11-12T02:01:03.422Z,43.17
2022-11-12T02:03:42.262Z,40.30
2022-11-12T02:06:40.777Z,33.63
2022-11-12T02:09:23.495Z,36.05
2022-11-12T02:12:05.640Z,29.95
2022-11-12T02:14:36.811Z,41.70
2022-11-12T02:17:08.459Z,34.85
2022-11-12T02:19:52.069Z,33.03
2022-11-12T02:22:32.157Z,35.60
2022-11-12T02:25:19.320Z,38.00
2022-11-12T02:28:02.908Z,34.00
2022-11-12T02:30:49.555Z,27.90
2022-11-12T02:33:26.764Z,47.38
2022-11-12T02:35:59.499Z,38.20
2022-11-12T02:38:42.304Z,33.20
2022-11-12T02:41:20.317Z,40.83
2022-11-12T02:43:54.611Z,45.53
2022-11-12T02:46:29.533Z,34.25
2022-11-12T02:49:02.243Z,33.40
2022-11-12T02:51:46.576Z,32.90
2022-11-12T02:54:36.408Z,39.30
2022-11-12T02:57:21.142Z,33.00
2022-11-12T02:59:53.058Z,25.98
2022-11-12T03:02:27.604Z,33.63
2022-11-12T03:05:02.871Z,33.00
2022-11-12T03:07:41.516Z,33.90
2022-11-12T03:10:18.079Z,36.30
2022-11-12T03:12:51.713Z,42.13
2022-11-12T03:15:32.107Z,43.75
2022-11-12T03:18:05.345Z,34.42
2022-11-12T03:20:42.512Z,39.13
2022-11-12T03:23:22.431Z,41.67
2022-11-12T03:26:06.936Z,36.97
2022-11-12T03:32:10.033Z,47.40
2022-11-12T03:34:39.143Z,37.92
2022-11-12T03:37:12.939Z,41.75
2022-11-12T03:39:46.556Z,44.60
2022-11-12T03:42:20.380Z,46.10
2022-11-12T03:44:51.265Z,45.78
2022-11-12T03:47:23.761Z,45.35
2022-11-12T03:49:52.868Z,39.03
2022-11-12T03:52:21.731Z,50.50
2022-11-12T03:54:57.135Z,38.28
2022-11-12T03:57:33.650Z,46.10
2022-11-12T04:00:03.498Z,51.05
2022-11-12T04:02:38.903Z,40.13
2022-11-12T04:05:30.134Z,51.75
2022-11-12T04:08:20.896Z,49.80
2022-11-12T04:10:51.727Z,50.45
2022-11-12T04:13:29.704Z,48.50
2022-11-12T04:16:18.344Z,45.65
2022-11-12T04:19:09.884Z,49.63
2022-11-12T04:21:57.021Z,47.58
2022-11-12T04:24:49.281Z,48.45
2022-11-12T04:27:26.754Z,46.28
2022-11-12T04:30:13.140Z,45.53
2022-11-12T04:32:48.606Z,51.88
2022-11-12T04:35:25.861Z,48.72
2022-11-12T04:38:00.864Z,43.80
2022-11-12T04:40:56.050Z,44.42
2022-11-12T04:43:41.772Z,61.50
2022-11-12T04:46:13.999Z,55.63
2022-11-12T04:48:51.476Z,44.60
2022-11-12T04:51:45.324Z,44.88
2022-11-12T04:54:14.692Z,50.33
2022-11-12T04:56:50.650Z,50.28
2022-11-12T04:59:35.034Z,48.58
2022-11-12T05:02:10.695Z,52.90
2022-11-12T05:04:41.440Z,44.97
2022-11-12T05:07:13.327Z,64.90
2022-11-12T05:09:52.129Z,54.40
2022-11-12T05:12:24.860Z,49.67
2022-11-12T05:15:02.398Z,53.78
2022-11-12T05:17:34.519Z,46.83
2022-11-12T05:20:06.297Z,43.50
2022-11-12T05:22:50.432Z,48.63
2022-11-12T05:25:29.734Z,44.95
2022-11-12T05:28:08.043Z,53.15
2022-11-12T05:30:58.487Z,51.83
2022-11-12T05:33:26.591Z,46.33
2022-11-12T05:35:57.579Z,47.88
2022-11-12T05:38:28.002Z,47.60
2022-11-12T05:40:56.308Z,41.92
2022-11-12T05:43:24.773Z,40.85
2022-11-12T05:45:56.628Z,45.42
2022-11-12T05:48:25.974Z,41.92
2022-11-12T05:51:12.413Z,31.20
2022-11-12T05:53:43.247Z,37.75
2022-11-12T05:56:12.299Z,37.22
2022-11-12T05:58:40.736Z,31.73
2022-11-12T06:01:18.027Z,36.28
2022-11-12T06:03:46.777Z,35.88
2022-11-12T06:06:15.974Z,32.40
2022-11-12T06:08:46.847Z,36.13
2022-11-12T06:11:15.678Z,37.78
2022-11-12T06:13:44.075Z,40.97
2022-11-12T06:16:12.676Z,42.20
2022-11-12T06:18:42.834Z,38.80
2022-11-12T06:21:23.752Z,35.42
2022-11-12T06:23:55.261Z,34.47
2022-11-12T06:26:27.433Z,42.25
2022-11-12T06:28:56.470Z,33.33
2022-11-12T06:31:30.781Z,39.10
2022-11-12T06:34:12.569Z,43.95
2022-11-12T06:36:46.838Z,37.90
2022-11-12T06:39:22.489Z,38.38
2022-11-12T06:41:54.379Z,39.50
2022-11-12T06:44:26.147Z,41.47
2022-11-12T06:46:57.355Z,29.35
2022-11-12T06:49:27.389Z,40.30
2022-11-12T06:51:58.634Z,34.13
2022-11-12T06:54:31.170Z,40.13
2022-11-12T06:57:01.306Z,34.90
2022-11-12T06:59:35.843Z,37.03
2022-11-12T07:02:04.912Z,34.40
2022-11-12T07:04:43.269Z,34.17
2022-11-12T07:07:13.585Z,37.35
2022-11-12T07:09:44.992Z,38.17
2022-11-12T07:12:13.950Z,37.47
2022-11-12T07:14:45.150Z,36.38
2022-11-12T07:17:16.240Z,45.70
2022-11-12T07:19:51.882Z,43.28
2022-11-12T07:22:23.553Z,41.13
2022-11-12T07:25:00.472Z,38.03
2022-11-12T07:27:31.849Z,34.08
2022-11-12T07:30:04.017Z,37.10
2022-11-12T07:32:44.012Z,32.87
2022-11-12T07:35:23.100Z,33.83
2022-11-12T07:37:59.459Z,38.35
2022-11-12T07:40:32.540Z,39.70
2022-11-12T07:43:07.715Z,37.67
2022-11-12T07:45:37.274Z,33.00
2022-11-12T07:48:07.854Z,37.13
2022-11-12T07:50:39.498Z,31.33
2022-11-12T07:53:10.722Z,34.20
2022-11-12T07:55:41.714Z,34.22
2022-11-12T07:58:11.732Z,35.08
2022-11-12T08:00:41.381Z,31.40
2022-11-12T08:03:13.298Z,28.73
2022-11-12T08:05:44.604Z,32.72
2022-11-12T08:08:20.750Z,32.13
2022-11-12T08:10:55.101Z,32.75
2022-11-12T08:13:25.009Z,35.10
2022-11-12T08:15:56.123Z,39.00
2022-11-12T08:18:26.799Z,31.45
2022-11-12T08:21:01.977Z,34.95
2022-11-12T08:23:35.650Z,34.97
2022-11-12T08:26:25.972Z,36.25
2022-11-12T08:28:56.683Z,36.80
2022-11-12T08:31:31.604Z,39.22
2022-11-12T08:34:17.382Z,38.17
2022-11-12T08:36:57.772Z,34.15
2022-11-12T08:39:29.243Z,35.85
2022-11-12T08:42:01.507Z,39.60
2022-11-12T08:44:35.272Z,34.10
2022-11-12T08:47:15.662Z,35.60
2022-11-12T08:49:48.280Z,40.83
2022-11-12T08:52:31.376Z,41.87
2022-11-12T08:55:08.545Z,39.15
2022-11-12T08:57:45.101Z,35.40
2022-11-12T09:00:18.989Z,36.85
2022-11-12T09:03:00.678Z,36.78
2022-11-12T09:05:29.985Z,38.65
2022-11-12T09:08:01.140Z,37.53
2022-11-12T09:10:30.126Z,37.30
2022-11-12T09:13:00.346Z,36.67
2022-11-12T09:15:37.444Z,33.83
2022-11-12T09:18:33.862Z,37.00
2022-11-12T09:21:09.874Z,35.70
2022-11-12T09:23:47.627Z,41.00
2022-11-12T09:26:18.410Z,40.25
2022-11-12T09:28:54.390Z,43.08
2022-11-12T09:31:29.727Z,43.45
2022-11-12T09:33:59.002Z,43.05
2022-11-12T09:36:37.164Z,44.92
2022-11-12T09:39:11.909Z,47.88
2022-11-12T09:41:43.577Z,45.75
2022-11-12T09:44:17.200Z,40.95
2022-11-12T09:46:52.584Z,50.30
2022-11-12T09:49:31.075Z,47.47
2022-11-12T09:52:14.765Z,52.28
2022-11-12T09:54:47.865Z,52.33
2022-11-12T09:57:16.163Z,66.10
2022-11-12T09:59:45.655Z,57.00
2022-11-12T10:02:25.694Z,58.10
2022-11-12T10:05:22.262Z,62.58
2022-11-12T10:08:26.471Z,53.83
2022-11-12T10:11:01.761Z,66.47
2022-11-12T10:13:48.414Z,61.40
2022-11-12T10:19:32.636Z,56.28
2022-11-12T10:22:13.218Z,56.20
2022-11-12T10:24:42.932Z,43.28
2022-11-12T10:27:19.001Z,48.30
2022-11-12T10:29:54.704Z,49.35
2022-11-12T10:32:23.066Z,44.38
2022-11-12T10:34:53.175Z,50.80
2022-11-12T10:37:26.658Z,47.22
2022-11-12T10:39:56.758Z,47.33
2022-11-12T10:42:24.882Z,46.70
2022-11-12T10:44:53.044Z,51.20
2022-11-12T10:47:27.232Z,57.03
2022-11-12T10:50:20.239Z,54.38
2022-11-12T10:52:55.916Z,56.40
2022-11-12T10:55:25.857Z,53.22
2022-11-12T10:58:09.668Z,50.63
2022-11-12T11:00:39.682Z,49.35
2022-11-12T11:03:27.408Z,51.20
2022-11-12T11:06:01.756Z,51.60
2022-11-12T11:08:36.244Z,51.55
2022-11-12T11:11:23.304Z,51.53
2022-11-12T11:13:55.837Z,50.53
2022-11-12T11:16:26.116Z,51.97
2022-11-12T11:18:57.191Z,39.15
2022-11-12T11:21:56.442Z,40.47
2022-11-12T11:24:37.835Z,43.78
2022-11-12T11:27:15.615Z,46.15
2022-11-12T11:30:05.341Z,41.97
2022-11-12T11:32:50.795Z,48.97
2022-11-12T11:35:27.485Z,47.03
2022-11-12T11:38:14.662Z,49.50
2022-11-12T11:40:53.727Z,54.05
2022-11-12T11:43:50.123Z,47.70
2022-11-12T11:46:39.707Z,45.22
2022-11-12T11:49:22.131Z,48.72
2022-11-12T11:51:57.146Z,47.47
2022-11-12T11:54:51.783Z,48.08
2022-11-12T11:57:24.273Z,47.95
2022-11-12T12:00:11.141Z,44.97
2022-11-12T12:02:54.774Z,49.25
2022-11-12T12:05:40.744Z,53.47
2022-11-12T12:08:15.200Z,65.25
2022-11-12T12:11:11.744Z,46.90
2022-11-12T12:13:53.522Z,47.85
2022-11-12T12:16:43.697Z,40.58
2022-11-12T12:19:27.033Z,39.58
2022-11-12T12:24:28.927Z,34.33
2022-11-12T12:27:03.645Z,41.72
2022-11-12T12:29:37.955Z,38.63
2022-11-12T12:32:13.264Z,33.95
2022-11-12T12:34:44.409Z,37.97
2022-11-12T12:37:22.284Z,41.50
2022-11-12T12:39:56.474Z,40.40
2022-11-12T12:42:32.000Z,41.83
2022-11-12T12:45:08.174Z,38.55
2022-11-12T12:47:42.208Z,46.78
2022-11-12T12:50:15.266Z,78.72
2022-11-12T12:55:37.690Z,36.97
2022-11-12T12:58:21.829Z,36.85
2022-11-12T13:00:52.998Z,37.17
2022-11-12T13:03:54.020Z,35.25
2022-11-12T13:06:28.819Z,36.50
2022-11-12T13:09:01.229Z,32.63
2022-11-12T13:12:10.193Z,36.22
2022-11-12T13:15:14.524Z,36.95
2022-11-12T13:17:51.824Z,40.22
2022-11-12T13:20:42.261Z,36.42
2022-11-12T13:24:05.515Z,42.08
2022-11-12T13:26:54.137Z,43.85
2022-11-12T13:29:40.187Z,39.05
2022-11-12T13:32:37.486Z,44.25
2022-11-12T13:35:37.446Z,41.05
2022-11-12T13:38:13.299Z,53.33
2022-11-12T13:40:46.309Z,81.20
2022-11-12T13:43:34.181Z,69.20
2022-11-12T13:46:24.266Z,69.45
2022-11-12T13:48:59.251Z,52.85
2022-11-12T13:51:35.782Z,42.95
2022-11-12T13:54:23.997Z,40.40
2022-11-12T13:56:54.861Z,40.55
2022-11-12T13:59:26.063Z,43.25
2022-11-12T14:01:55.220Z,44.28
2022-11-12T14:04:27.678Z,42.08
2022-11-12T14:07:02.921Z,42.83
2022-11-12T14:09:51.807Z,47.88
2022-11-12T14:12:35.672Z,44.78
2022-11-12T14:15:16.514Z,46.28
2022-11-12T14:17:52.726Z,50.15
2022-11-12T14:20:31.989Z,53.65
2022-11-12T14:23:07.465Z,46.85
2022-11-12T14:25:37.784Z,46.17
2022-11-12T14:28:27.651Z,48.10
2022-11-12T14:30:57.008Z,48.30
2022-11-12T14:33:27.969Z,123.80
2022-11-12T14:36:00.920Z,51.53
2022-11-12T14:38:33.651Z,43.22
2022-11-12T14:41:06.059Z,47.80
2022-11-12T14:43:39.025Z,45.05
2022-11-12T14:46:08.927Z,46.17
2022-11-12T14:48:46.329Z,45.35
2022-11-12T14:51:16.113Z,44.08
2022-11-12T14:53:48.562Z,47.28
2022-11-12T14:56:25.068Z,51.58
2022-11-12T14:58:57.931Z,54.83
2022-11-12T15:02:08.846Z,54.00
2022-11-12T15:04:19.992Z,52.38
2022-11-12T15:06:55.957Z,56.28
2022-11-12T15:09:35.245Z,48.60
2022-11-12T15:12:09.919Z,49.53
2022-11-12T15:14:40.401Z,49.33
2022-11-12T15:17:19.963Z,47.33
2022-11-12T15:19:49.372Z,60.70
2022-11-12T15:22:22.336Z,56.35
2022-11-12T15:24:51.082Z,51.15
2022-11-12T15:27:35.418Z,49.42
2022-11-12T15:30:17.394Z,49.88
2022-11-12T15:32:50.143Z,54.72
2022-11-12T15:35:36.969Z,45.13
2022-11-12T15:38:08.926Z,51.17
2022-11-12T15:40:47.981Z,49.25
2022-11-12T15:43:19.149Z,50.05
2022-11-12T15:45:51.598Z,51.45
2022-11-12T15:48:19.960Z,47.40
2022-11-12T15:50:48.746Z,52.70
2022-11-12T15:53:19.423Z,49.50
2022-11-12T15:55:50.918Z,52.15
2022-11-12T15:58:28.693Z,51.55
2022-11-12T16:01:01.351Z,59.55
2022-11-12T16:03:31.360Z,55.45
2022-11-12T16:06:08.907Z,62.17
2022-11-12T16:08:38.520Z,63.10
2022-11-12T16:11:27.590Z,66.90
2022-11-12T16:14:01.639Z,66.63
2022-11-12T16:16:33.196Z,70.32
2022-11-12T16:19:03.637Z,68.05
2022-11-12T16:21:33.150Z,67.13
2022-11-12T16:24:02.019Z,72.13
2022-11-12T16:26:41.294Z,64.32
2022-11-12T16:29:17.636Z,72.80
2022-11-12T16:31:48.414Z,73.43
2022-11-12T16:34:18.102Z,70.13
2022-11-12T16:36:48.268Z,73.95
2022-11-12T16:39:23.960Z,77.15
2022-11-12T16:41:56.298Z,70.55
2022-11-12T16:44:24.647Z,75.35
2022-11-12T16:46:55.780Z,80.00
2022-11-12T16:49:26.183Z,95.88
2022-11-12T16:51:59.244Z,91.20
2022-11-12T16:56:57.578Z,78.57
2022-11-12T16:59:26.867Z,89.65
2022-11-12T17:01:57.463Z,85.97
2022-11-12T17:04:30.101Z,83.20
2022-11-12T17:07:04.659Z,84.32
2022-11-12T17:09:38.138Z,93.78
2022-11-12T17:12:10.217Z,80.55
2022-11-12T17:14:44.492Z,82.88
2022-11-12T17:17:14.541Z,82.57
2022-11-12T17:19:45.960Z,87.15
2022-11-12T17:22:18.336Z,92.10
2022-11-12T17:24:53.012Z,87.32
2022-11-12T17:27:24.835Z,89.63
2022-11-12T17:29:55.806Z,88.53
2022-11-12T17:32:37.034Z,90.80
2022-11-12T17:35:10.918Z,94.40
2022-11-12T17:40:39.536Z,91.97
2022-11-12T17:43:14.456Z,94.85
2022-11-12T17:46:02.657Z,101.07
2022-11-12T17:48:42.831Z,86.18
2022-11-12T17:51:14.665Z,92.30
2022-11-12T17:53:50.105Z,87.10
2022-11-12T17:56:22.377Z,87.78
2022-11-12T17:58:55.243Z,84.00
2022-11-12T18:01:25.965Z,89.95
2022-11-12T18:03:59.053Z,78.72
2022-11-12T18:06:31.795Z,87.88
2022-11-12T18:09:02.769Z,82.70
2022-11-12T18:11:33.980Z,72.78
2022-11-12T18:14:23.328Z,76.90
2022-11-12T18:17:04.695Z,76.70
2022-11-12T18:19:35.665Z,84.50
2022-11-12T18:22:08.101Z,73.75
2022-11-12T18:24:39.915Z,78.50
2022-11-12T18:27:14.066Z,72.15
2022-11-12T18:29:50.806Z,75.93
2022-11-12T18:32:36.589Z,84.00
2022-11-12T18:35:29.975Z,85.75
2022-11-12T18:38:06.876Z,82.35
2022-11-12T18:40:51.565Z,80.55
2022-11-12T18:43:21.274Z,81.05
2022-11-12T18:46:11.798Z,67.30
2022-11-12T18:48:59.015Z,66.88
2022-11-12T18:51:36.735Z,67.57
2022-11-12T18:54:17.082Z,75.43
2022-11-12T18:56:58.033Z,73.90
2022-11-12T18:59:39.445Z,72.70
2022-11-12T19:02:17.810Z,62.53
2022-11-12T19:04:56.018Z,62.28
2022-11-12T19:07:35.541Z,61.33
2022-11-12T19:10:16.802Z,67.18
2022-11-12T19:13:05.011Z,71.93
2022-11-12T19:15:39.985Z,75.72
2022-11-12T19:18:18.305Z,66.03
2022-11-12T19:21:02.178Z,63.22
2022-11-12T19:23:41.552Z,67.47
2022-11-12T19:26:29.715Z,74.47
2022-11-12T19:29:01.904Z,71.70
2022-11-12T19:31:38.909Z,79.23
2022-11-12T19:34:30.027Z,62.65
2022-11-12T19:37:32.601Z,59.35
2022-11-12T19:40:02.629Z,56.88
2022-11-12T19:42:30.789Z,53.60
2022-11-12T19:45:03.723Z,50.90
2022-11-12T19:47:34.059Z,53.25
2022-11-12T19:50:05.487Z,56.80
2022-11-12T19:52:33.848Z,67.97
2022-11-12T19:55:04.271Z,74.50
2022-11-12T19:57:33.556Z,72.95
2022-11-12T20:00:05.756Z,76.90
2022-11-12T20:02:35.411Z,87.10
2022-11-12T20:05:06.649Z,63.90
2022-11-12T20:07:39.284Z,71.45
2022-11-12T20:10:09.841Z,65.07
2022-11-12T20:12:42.588Z,83.90
2022-11-12T20:15:17.729Z,64.97
2022-11-12T20:17:48.577Z,72.40
2022-11-12T20:20:18.451Z,72.10
2022-11-12T20:22:46.522Z,70.38
2022-11-12T20:25:19.418Z,79.43
2022-11-12T20:27:49.512Z,80.65
2022-11-12T20:30:19.800Z,72.57
2022-11-12T20:32:49.469Z,78.82
2022-11-12T20:35:22.202Z,69.15
2022-11-12T20:40:31.660Z,53.20
2022-11-12T20:43:00.552Z,63.20
2022-11-12T20:45:28.896Z,55.95
2022-11-12T20:48:01.395Z,66.32
2022-11-12T20:50:30.166Z,57.67
2022-11-12T20:53:02.707Z,57.60
2022-11-12T20:55:40.838Z,74.25
2022-11-12T20:58:10.976Z,62.17
2022-11-12T21:00:41.317Z,54.25
2022-11-12T21:03:09.501Z,66.50
2022-11-12T21:05:37.866Z,59.03
2022-11-12T21:08:09.103Z,66.70
2022-11-12T21:10:39.646Z,59.03
2022-11-12T21:13:10.977Z,55.03
2022-11-12T21:15:50.195Z,63.72
2022-11-12T21:18:20.398Z,55.70
2022-11-12T21:20:50.547Z,62.83
2022-11-12T21:23:20.912Z,61.75
2022-11-12T21:25:50.333Z,53.80
2022-11-12T21:28:21.049Z,68.13
2022-11-12T21:30:51.442Z,48.55
2022-11-12T21:33:23.439Z,54.17
2022-11-12T21:35:55.060Z,58.00
2022-11-12T21:38:25.871Z,56.85
2022-11-12T21:41:03.810Z,59.33
2022-11-12T21:43:37.478Z,49.63
2022-11-12T21:46:11.573Z,52.42
2022-11-12T21:48:41.215Z,44.92
2022-11-12T21:51:16.584Z,58.10
2022-11-12T21:53:45.805Z,63.17
2022-11-12T21:56:20.638Z,53.15
2022-11-12T21:58:52.479Z,55.30
2022-11-12T22:01:22.911Z,51.95
2022-11-12T22:03:56.822Z,51.67
2022-11-12T22:06:29.075Z,51.35
2022-11-12T22:08:59.993Z,47.30
2022-11-12T22:11:32.314Z,47.53
2022-11-12T22:14:01.347Z,52.83
2022-11-12T22:16:30.994Z,57.20
2022-11-12T22:19:02.244Z,49.67
2022-11-12T22:21:36.999Z,46.67
2022-11-12T22:24:10.375Z,58.65
2022-11-12T22:26:40.305Z,54.05
2022-11-12T22:29:08.600Z,48.95
2022-11-12T22:31:39.767Z,41.42
2022-11-12T22:34:13.854Z,53.00
2022-11-12T22:36:42.354Z,61.95
2022-11-12T22:39:13.476Z,47.53
2022-11-12T22:41:42.846Z,47.45
2022-11-12T22:44:10.942Z,46.10
2022-11-12T22:46:39.670Z,46.45
2022-11-12T22:49:09.273Z,52.75
2022-11-12T22:51:38.440Z,46.65
2022-11-12T22:54:08.932Z,50.83
2022-11-12T22:56:40.452Z,52.20
2022-11-12T22:59:14.271Z,53.42
2022-11-12T23:01:44.481Z,53.90
2022-11-12T23:04:13.896Z,56.03
2022-11-12T23:06:46.698Z,61.17
2022-11-12T23:09:18.231Z,58.17
2022-11-12T23:11:46.272Z,59.95
2022-11-12T23:14:17.200Z,64.53
2022-11-12T23:16:46.528Z,65.30
2022-11-12T23:19:16.649Z,68.72
2022-11-12T23:21:45.253Z,67.75
2022-11-12T23:24:15.029Z,64.60
2022-11-12T23:26:43.894Z,65.15
2022-11-12T23:29:14.674Z,67.82
2022-11-12T23:31:47.155Z,64.47
2022-11-12T23:34:17.662Z,58.33
2022-11-12T23:36:47.398Z,59.92
2022-11-12T23:39:15.910Z,55.38
2022-11-12T23:41:44.296Z,62.25
2022-11-12T23:44:18.030Z,70.95
2022-11-12T23:46:48.208Z,69.25
2022-11-12T23:49:17.371Z,68.53
2022-11-12T23:51:47.530Z,64.85
2022-11-12T23:54:16.351Z,67.07
2022-11-12T23:56:45.907Z,61.70
2022-11-12T23:59:13.996Z,72.75
